sensor_id;sensor_type;location;lat;lon;timestamp;P1;durP1;ratioP1;P2;durP2;ratioP2
47161;SDS011;32921;53.256;8.198;2022-08-21T00:00:14;15.75;;;4.18;;
47161;SDS011;32921;53.256;8.198;2022-08-21T00:02:53;11.63;;;4.43;;
47161;SDS011;32921;53.256;8.198;2022-08-21T00:05:21;14.00;;;4.72;;
47161;SDS011;32921;53.256;8.198;2022-08-21T00:07:48;11.43;;;4.30;;
47161;SDS011;32921;53.256;8.198;2022-08-21T00:10:14;10.02;;;4.07;;
47161;SDS011;32921;53.256;8.198;2022-08-21T00:12:41;16.58;;;4.47;;
47161;SDS011;32921;53.256;8.198;2022-08-21T00:15:08;15.95;;;4.00;;
47161;SDS011;32921;53.256;8.198;2022-08-21T00:17:35;9.45;;;3.95;;
47161;SDS011;32921;53.256;8.198;2022-08-21T00:20:03;9.93;;;4.00;;
47161;SDS011;32921;53.256;8.198;2022-08-21T00:22:32;11.50;;;3.90;;
47161;SDS011;32921;53.256;8.198;2022-08-21T00:24:57;9.82;;;4.32;;
47161;SDS011;32921;53.256;8.198;2022-08-21T00:27:23;11.27;;;3.75;;
47161;SDS011;32921;53.256;8.198;2022-08-21T00:29:48;12.23;;;4.10;;
47161;SDS011;32921;53.256;8.198;2022-08-21T00:32:19;12.23;;;3.90;;
47161;SDS011;32921;53.256;8.198;2022-08-21T00:37:11;11.07;;;3.72;;
47161;SDS011;32921;53.256;8.198;2022-08-21T00:39:37;7.90;;;3.67;;
47161;SDS011;32921;53.256;8.198;2022-08-21T00:42:03;14.10;;;3.92;;
47161;SDS011;32921;53.256;8.198;2022-08-21T00:44:28;8.82;;;3.70;;
47161;SDS011;32921;53.256;8.198;2022-08-21T00:46:54;11.75;;;4.45;;
47161;SDS011;32921;53.256;8.198;2022-08-21T00:49:19;11.75;;;4.72;;
47161;SDS011;32921;53.256;8.198;2022-08-21T00:51:47;11.10;;;4.80;;
47161;SDS011;32921;53.256;8.198;2022-08-21T00:56:43;13.50;;;4.38;;
47161;SDS011;32921;53.256;8.198;2022-08-21T00:59:09;15.98;;;5.00;;
47161;SDS011;32921;53.256;8.198;2022-08-21T01:01:35;14.88;;;4.75;;
47161;SDS011;32921;53.256;8.198;2022-08-21T01:04:02;14.18;;;4.95;;
47161;SDS011;32921;53.256;8.198;2022-08-21T01:06:27;11.88;;;5.20;;
47161;SDS011;32921;53.256;8.198;2022-08-21T01:08:53;14.65;;;5.40;;
47161;SDS011;32921;53.256;8.198;2022-08-21T01:11:18;12.50;;;5.18;;
47161;SDS011;32921;53.256;8.198;2022-08-21T01:13:45;11.48;;;5.22;;
47161;SDS011;32921;53.256;8.198;2022-08-21T01:16:13;15.07;;;5.35;;
47161;SDS011;32921;53.256;8.198;2022-08-21T01:18:42;13.63;;;5.03;;
47161;SDS011;32921;53.256;8.198;2022-08-21T01:21:10;11.23;;;4.65;;
47161;SDS011;32921;53.256;8.198;2022-08-21T01:23:45;12.52;;;5.15;;
47161;SDS011;32921;53.256;8.198;2022-08-21T01:26:13;14.93;;;4.75;;
47161;SDS011;32921;53.256;8.198;2022-08-21T01:28:45;11.63;;;5.10;;
47161;SDS011;32921;53.256;8.198;2022-08-21T01:31:24;12.30;;;4.68;;
47161;SDS011;32921;53.256;8.198;2022-08-21T01:33:50;21.73;;;5.53;;
47161;SDS011;32921;53.256;8.198;2022-08-21T01:36:17;12.45;;;4.90;;
47161;SDS011;32921;53.256;8.198;2022-08-21T01:38:43;14.18;;;4.65;;
47161;SDS011;32921;53.256;8.198;2022-08-21T01:41:09;14.00;;;4.80;;
47161;SDS011;32921;53.256;8.198;2022-08-21T01:43:35;10.57;;;3.88;;
47161;SDS011;32921;53.256;8.198;2022-08-21T01:46:02;14.05;;;5.20;;
47161;SDS011;32921;53.256;8.198;2022-08-21T01:48:28;15.57;;;4.53;;
47161;SDS011;32921;53.256;8.198;2022-08-21T01:50:54;15.00;;;4.95;;
47161;SDS011;32921;53.256;8.198;2022-08-21T01:53:19;13.65;;;4.40;;
47161;SDS011;32921;53.256;8.198;2022-08-21T01:55:45;13.80;;;4.85;;
47161;SDS011;32921;53.256;8.198;2022-08-21T01:58:10;13.30;;;4.30;;
47161;SDS011;32921;53.256;8.198;2022-08-21T02:00:36;11.50;;;4.38;;
47161;SDS011;32921;53.256;8.198;2022-08-21T02:03:02;16.90;;;4.53;;
47161;SDS011;32921;53.256;8.198;2022-08-21T02:05:28;12.27;;;4.00;;
47161;SDS011;32921;53.256;8.198;2022-08-21T02:07:53;10.07;;;4.28;;
47161;SDS011;32921;53.256;8.198;2022-08-21T02:10:22;14.18;;;4.55;;
47161;SDS011;32921;53.256;8.198;2022-08-21T02:12:51;11.73;;;4.50;;
47161;SDS011;32921;53.256;8.198;2022-08-21T02:15:16;11.02;;;3.90;;
47161;SDS011;32921;53.256;8.198;2022-08-21T02:17:45;10.23;;;4.90;;
47161;SDS011;32921;53.256;8.198;2022-08-21T02:20:23;12.15;;;4.60;;
47161;SDS011;32921;53.256;8.198;2022-08-21T02:22:51;17.77;;;5.10;;
47161;SDS011;32921;53.256;8.198;2022-08-21T02:25:18;16.20;;;5.00;;
47161;SDS011;32921;53.256;8.198;2022-08-21T02:27:45;15.75;;;5.30;;
47161;SDS011;32921;53.256;8.198;2022-08-21T02:30:17;18.00;;;6.13;;
47161;SDS011;32921;53.256;8.198;2022-08-21T02:32:49;15.32;;;5.78;;
47161;SDS011;32921;53.256;8.198;2022-08-21T02:35:14;11.23;;;5.55;;
47161;SDS011;32921;53.256;8.198;2022-08-21T02:37:44;15.95;;;5.57;;
47161;SDS011;32921;53.256;8.198;2022-08-21T02:40:15;11.20;;;5.30;;
47161;SDS011;32921;53.256;8.198;2022-08-21T02:42:42;15.68;;;5.25;;
47161;SDS011;32921;53.256;8.198;2022-08-21T02:45:08;13.23;;;5.28;;
47161;SDS011;32921;53.256;8.198;2022-08-21T02:47:35;12.90;;;4.95;;
47161;SDS011;32921;53.256;8.198;2022-08-21T02:50:00;9.30;;;5.15;;
47161;SDS011;32921;53.256;8.198;2022-08-21T02:52:26;12.13;;;4.35;;
47161;SDS011;32921;53.256;8.198;2022-08-21T02:54:52;12.63;;;4.72;;
47161;SDS011;32921;53.256;8.198;2022-08-21T02:57:17;15.35;;;4.75;;
47161;SDS011;32921;53.256;8.198;2022-08-21T02:59:43;11.60;;;5.07;;
47161;SDS011;32921;53.256;8.198;2022-08-21T03:02:09;15.07;;;5.22;;
47161;SDS011;32921;53.256;8.198;2022-08-21T03:04:35;14.35;;;5.05;;
47161;SDS011;32921;53.256;8.198;2022-08-21T03:09:33;12.35;;;5.75;;
47161;SDS011;32921;53.256;8.198;2022-08-21T03:11:58;15.43;;;5.72;;
47161;SDS011;32921;53.256;8.198;2022-08-21T03:14:24;12.38;;;5.60;;
47161;SDS011;32921;53.256;8.198;2022-08-21T03:16:49;13.32;;;6.00;;
47161;SDS011;32921;53.256;8.198;2022-08-21T03:19:15;11.68;;;5.85;;
47161;SDS011;32921;53.256;8.198;2022-08-21T03:21:41;12.55;;;6.00;;
47161;SDS011;32921;53.256;8.198;2022-08-21T03:24:06;16.35;;;6.53;;
47161;SDS011;32921;53.256;8.198;2022-08-21T03:26:33;13.45;;;6.32;;
47161;SDS011;32921;53.256;8.198;2022-08-21T03:28:59;15.35;;;6.55;;
47161;SDS011;32921;53.256;8.198;2022-08-21T03:31:25;12.98;;;6.63;;
47161;SDS011;32921;53.256;8.198;2022-08-21T03:33:55;14.53;;;7.10;;
47161;SDS011;32921;53.256;8.198;2022-08-21T03:36:22;16.63;;;7.63;;
47161;SDS011;32921;53.256;8.198;2022-08-21T03:38:47;15.07;;;7.75;;
47161;SDS011;32921;53.256;8.198;2022-08-21T03:41:13;15.50;;;8.40;;
47161;SDS011;32921;53.256;8.198;2022-08-21T03:43:39;17.73;;;8.65;;
47161;SDS011;32921;53.256;8.198;2022-08-21T03:46:05;14.10;;;7.93;;
47161;SDS011;32921;53.256;8.198;2022-08-21T03:48:31;19.50;;;9.20;;
47161;SDS011;32921;53.256;8.198;2022-08-21T03:50:58;19.27;;;9.32;;
47161;SDS011;32921;53.256;8.198;2022-08-21T03:53:30;23.05;;;9.65;;
47161;SDS011;32921;53.256;8.198;2022-08-21T03:58:22;17.92;;;9.60;;
47161;SDS011;32921;53.256;8.198;2022-08-21T04:00:50;18.77;;;9.65;;
47161;SDS011;32921;53.256;8.198;2022-08-21T04:03:18;19.20;;;9.93;;
47161;SDS011;32921;53.256;8.198;2022-08-21T04:05:44;17.23;;;10.70;;
47161;SDS011;32921;53.256;8.198;2022-08-21T04:08:10;20.65;;;9.90;;
47161;SDS011;32921;53.256;8.198;2022-08-21T04:10:37;19.70;;;9.73;;
47161;SDS011;32921;53.256;8.198;2022-08-21T04:13:04;18.80;;;11.30;;
47161;SDS011;32921;53.256;8.198;2022-08-21T04:15:31;22.73;;;11.43;;
47161;SDS011;32921;53.256;8.198;2022-08-21T04:17:57;25.35;;;10.82;;
47161;SDS011;32921;53.256;8.198;2022-08-21T04:20:23;18.75;;;11.40;;
47161;SDS011;32921;53.256;8.198;2022-08-21T04:22:50;19.73;;;11.80;;
47161;SDS011;32921;53.256;8.198;2022-08-21T04:25:17;18.83;;;11.90;;
47161;SDS011;32921;53.256;8.198;2022-08-21T04:27:45;25.20;;;10.90;;
47161;SDS011;32921;53.256;8.198;2022-08-21T04:30:11;20.27;;;11.05;;
47161;SDS011;32921;53.256;8.198;2022-08-21T04:32:38;26.92;;;12.20;;
47161;SDS011;32921;53.256;8.198;2022-08-21T04:35:05;27.05;;;12.23;;
47161;SDS011;32921;53.256;8.198;2022-08-21T04:37:33;17.65;;;11.65;;
47161;SDS011;32921;53.256;8.198;2022-08-21T04:39:59;26.85;;;12.93;;
47161;SDS011;32921;53.256;8.198;2022-08-21T04:42:25;24.63;;;13.95;;
47161;SDS011;32921;53.256;8.198;2022-08-21T04:44:52;27.38;;;14.30;;
47161;SDS011;32921;53.256;8.198;2022-08-21T04:47:18;26.02;;;14.55;;
47161;SDS011;32921;53.256;8.198;2022-08-21T04:49:44;28.65;;;13.77;;
47161;SDS011;32921;53.256;8.198;2022-08-21T04:52:11;25.50;;;14.77;;
47161;SDS011;32921;53.256;8.198;2022-08-21T04:54:38;23.77;;;14.27;;
47161;SDS011;32921;53.256;8.198;2022-08-21T04:57:05;24.08;;;14.70;;
47161;SDS011;32921;53.256;8.198;2022-08-21T04:59:37;22.77;;;14.65;;
47161;SDS011;32921;53.256;8.198;2022-08-21T05:02:06;27.33;;;14.38;;
47161;SDS011;32921;53.256;8.198;2022-08-21T05:04:34;26.80;;;15.20;;
47161;SDS011;32921;53.256;8.198;2022-08-21T05:07:05;24.33;;;14.88;;
47161;SDS011;32921;53.256;8.198;2022-08-21T05:09:35;24.90;;;15.27;;
47161;SDS011;32921;53.256;8.198;2022-08-21T05:12:03;27.35;;;15.20;;
47161;SDS011;32921;53.256;8.198;2022-08-21T05:14:29;25.10;;;15.18;;
47161;SDS011;32921;53.256;8.198;2022-08-21T05:16:54;27.13;;;15.52;;
47161;SDS011;32921;53.256;8.198;2022-08-21T05:19:20;25.05;;;15.80;;
47161;SDS011;32921;53.256;8.198;2022-08-21T05:21:46;24.13;;;15.18;;
47161;SDS011;32921;53.256;8.198;2022-08-21T05:24:15;26.83;;;15.73;;
47161;SDS011;32921;53.256;8.198;2022-08-21T05:26:41;28.75;;;16.02;;
47161;SDS011;32921;53.256;8.198;2022-08-21T05:29:07;26.95;;;15.63;;
47161;SDS011;32921;53.256;8.198;2022-08-21T05:31:33;22.52;;;14.82;;
47161;SDS011;32921;53.256;8.198;2022-08-21T05:33:58;23.25;;;14.75;;
47161;SDS011;32921;53.256;8.198;2022-08-21T05:36:24;25.05;;;15.88;;
47161;SDS011;32921;53.256;8.198;2022-08-21T05:38:50;25.50;;;14.90;;
47161;SDS011;32921;53.256;8.198;2022-08-21T05:41:16;27.50;;;15.68;;
47161;SDS011;32921;53.256;8.198;2022-08-21T05:43:41;24.40;;;13.60;;
47161;SDS011;32921;53.256;8.198;2022-08-21T05:46:07;25.05;;;14.43;;
47161;SDS011;32921;53.256;8.198;2022-08-21T05:48:33;25.00;;;14.77;;
47161;SDS011;32921;53.256;8.198;2022-08-21T05:51:04;24.58;;;14.05;;
47161;SDS011;32921;53.256;8.198;2022-08-21T05:53:34;23.45;;;15.48;;
47161;SDS011;32921;53.256;8.198;2022-08-21T05:56:01;25.58;;;14.20;;
47161;SDS011;32921;53.256;8.198;2022-08-21T05:58:28;22.23;;;14.80;;
47161;SDS011;32921;53.256;8.198;2022-08-21T06:00:55;26.85;;;12.90;;
47161;SDS011;32921;53.256;8.198;2022-08-21T06:03:22;20.20;;;12.88;;
47161;SDS011;32921;53.256;8.198;2022-08-21T06:05:50;23.80;;;12.93;;
47161;SDS011;32921;53.256;8.198;2022-08-21T06:08:16;21.98;;;11.68;;
47161;SDS011;32921;53.256;8.198;2022-08-21T06:10:42;24.60;;;11.27;;
47161;SDS011;32921;53.256;8.198;2022-08-21T06:13:09;18.88;;;10.77;;
47161;SDS011;32921;53.256;8.198;2022-08-21T06:15:35;24.60;;;10.35;;
47161;SDS011;32921;53.256;8.198;2022-08-21T06:18:00;17.52;;;8.88;;
47161;SDS011;32921;53.256;8.198;2022-08-21T06:20:26;19.92;;;8.73;;
47161;SDS011;32921;53.256;8.198;2022-08-21T06:22:53;19.33;;;8.40;;
47161;SDS011;32921;53.256;8.198;2022-08-21T06:25:18;19.25;;;8.05;;
47161;SDS011;32921;53.256;8.198;2022-08-21T06:27:44;16.08;;;7.88;;
47161;SDS011;32921;53.256;8.198;2022-08-21T06:30:10;17.08;;;7.68;;
47161;SDS011;32921;53.256;8.198;2022-08-21T06:32:36;18.65;;;7.60;;
47161;SDS011;32921;53.256;8.198;2022-08-21T06:35:03;19.85;;;6.15;;
47161;SDS011;32921;53.256;8.198;2022-08-21T06:37:29;16.85;;;6.72;;
47161;SDS011;32921;53.256;8.198;2022-08-21T06:39:54;13.40;;;7.20;;
47161;SDS011;32921;53.256;8.198;2022-08-21T06:42:20;15.73;;;6.30;;
47161;SDS011;32921;53.256;8.198;2022-08-21T06:44:46;14.27;;;6.05;;
47161;SDS011;32921;53.256;8.198;2022-08-21T06:47:12;14.75;;;5.43;;
47161;SDS011;32921;53.256;8.198;2022-08-21T06:49:38;12.40;;;5.60;;
47161;SDS011;32921;53.256;8.198;2022-08-21T06:52:08;13.75;;;4.65;;
47161;SDS011;32921;53.256;8.198;2022-08-21T06:54:35;13.18;;;4.63;;
47161;SDS011;32921;53.256;8.198;2022-08-21T06:57:00;15.20;;;4.60;;
47161;SDS011;32921;53.256;8.198;2022-08-21T06:59:26;10.20;;;3.65;;
47161;SDS011;32921;53.256;8.198;2022-08-21T07:01:52;9.93;;;4.18;;
47161;SDS011;32921;53.256;8.198;2022-08-21T07:04:17;14.43;;;3.92;;
47161;SDS011;32921;53.256;8.198;2022-08-21T07:06:43;11.82;;;3.95;;
47161;SDS011;32921;53.256;8.198;2022-08-21T07:09:08;8.73;;;3.42;;
47161;SDS011;32921;53.256;8.198;2022-08-21T07:11:35;11.73;;;3.85;;
47161;SDS011;32921;53.256;8.198;2022-08-21T07:14:02;10.15;;;3.53;;
47161;SDS011;32921;53.256;8.198;2022-08-21T07:16:28;11.38;;;3.63;;
47161;SDS011;32921;53.256;8.198;2022-08-21T07:18:54;12.13;;;3.45;;
47161;SDS011;32921;53.256;8.198;2022-08-21T07:21:20;7.82;;;3.13;;
47161;SDS011;32921;53.256;8.198;2022-08-21T07:23:47;11.70;;;3.30;;
47161;SDS011;32921;53.256;8.198;2022-08-21T07:26:15;11.45;;;2.65;;
47161;SDS011;32921;53.256;8.198;2022-08-21T07:28:42;10.07;;;3.00;;
47161;SDS011;32921;53.256;8.198;2022-08-21T07:31:08;12.82;;;3.13;;
47161;SDS011;32921;53.256;8.198;2022-08-21T07:33:35;5.85;;;2.53;;
47161;SDS011;32921;53.256;8.198;2022-08-21T07:36:01;10.43;;;2.97;;
47161;SDS011;32921;53.256;8.198;2022-08-21T07:38:27;8.40;;;3.25;;
47161;SDS011;32921;53.256;8.198;2022-08-21T07:40:54;10.48;;;3.10;;
47161;SDS011;32921;53.256;8.198;2022-08-21T07:43:21;7.70;;;2.38;;
47161;SDS011;32921;53.256;8.198;2022-08-21T07:45:47;10.15;;;2.55;;
47161;SDS011;32921;53.256;8.198;2022-08-21T07:48:14;9.30;;;2.80;;
47161;SDS011;32921;53.256;8.198;2022-08-21T07:50:40;10.75;;;3.10;;
47161;SDS011;32921;53.256;8.198;2022-08-21T07:53:06;9.88;;;2.47;;
47161;SDS011;32921;53.256;8.198;2022-08-21T07:55:32;9.77;;;2.58;;
47161;SDS011;32921;53.256;8.198;2022-08-21T07:57:58;9.38;;;2.70;;
47161;SDS011;32921;53.256;8.198;2022-08-21T08:00:25;8.50;;;2.35;;
47161;SDS011;32921;53.256;8.198;2022-08-21T08:02:52;9.95;;;2.47;;
47161;SDS011;32921;53.256;8.198;2022-08-21T08:05:20;8.65;;;2.25;;
47161;SDS011;32921;53.256;8.198;2022-08-21T08:07:48;10.00;;;2.53;;
47161;SDS011;32921;53.256;8.198;2022-08-21T08:10:13;8.68;;;2.00;;
47161;SDS011;32921;53.256;8.198;2022-08-21T08:12:40;12.25;;;2.50;;
47161;SDS011;32921;53.256;8.198;2022-08-21T08:15:07;8.93;;;2.10;;
47161;SDS011;32921;53.256;8.198;2022-08-21T08:17:35;12.32;;;2.40;;
47161;SDS011;32921;53.256;8.198;2022-08-21T08:20:02;10.50;;;2.83;;
47161;SDS011;32921;53.256;8.198;2022-08-21T08:22:28;8.68;;;2.17;;
47161;SDS011;32921;53.256;8.198;2022-08-21T08:24:54;14.32;;;2.58;;
47161;SDS011;32921;53.256;8.198;2022-08-21T08:27:21;9.13;;;2.53;;
47161;SDS011;32921;53.256;8.198;2022-08-21T08:29:46;8.73;;;2.22;;
47161;SDS011;32921;53.256;8.198;2022-08-21T08:32:12;10.38;;;2.45;;
47161;SDS011;32921;53.256;8.198;2022-08-21T08:34:39;7.72;;;2.10;;
47161;SDS011;32921;53.256;8.198;2022-08-21T08:37:05;11.40;;;3.03;;
47161;SDS011;32921;53.256;8.198;2022-08-21T08:39:32;8.90;;;2.22;;
47161;SDS011;32921;53.256;8.198;2022-08-21T08:44:34;10.90;;;2.15;;
47161;SDS011;32921;53.256;8.198;2022-08-21T08:47:00;9.38;;;2.45;;
47161;SDS011;32921;53.256;8.198;2022-08-21T08:54:43;9.00;;;2.10;;
47161;SDS011;32921;53.256;8.198;2022-08-21T08:57:15;12.45;;;2.90;;
47161;SDS011;32921;53.256;8.198;2022-08-21T08:59:46;11.52;;;2.90;;
47161;SDS011;32921;53.256;8.198;2022-08-21T09:02:14;8.73;;;2.50;;
47161;SDS011;32921;53.256;8.198;2022-08-21T09:04:41;9.52;;;2.72;;
47161;SDS011;32921;53.256;8.198;2022-08-21T09:12:36;12.35;;;2.92;;
47161;SDS011;32921;53.256;8.198;2022-08-21T09:15:09;12.95;;;3.25;;
47161;SDS011;32921;53.256;8.198;2022-08-21T09:25:58;12.90;;;2.90;;
47161;SDS011;32921;53.256;8.198;2022-08-21T09:28:36;11.45;;;3.10;;
47161;SDS011;32921;53.256;8.198;2022-08-21T09:31:06;11.82;;;2.70;;
47161;SDS011;32921;53.256;8.198;2022-08-21T09:33:33;9.15;;;2.40;;
47161;SDS011;32921;53.256;8.198;2022-08-21T09:35:59;11.95;;;2.35;;
47161;SDS011;32921;53.256;8.198;2022-08-21T09:38:30;10.77;;;2.90;;
47161;SDS011;32921;53.256;8.198;2022-08-21T09:41:02;9.85;;;2.40;;
47161;SDS011;32921;53.256;8.198;2022-08-21T09:43:33;10.02;;;2.78;;
47161;SDS011;32921;53.256;8.198;2022-08-21T09:46:07;8.05;;;2.20;;
47161;SDS011;32921;53.256;8.198;2022-08-21T09:48:47;12.52;;;2.35;;
47161;SDS011;32921;53.256;8.198;2022-08-21T09:51:19;11.00;;;2.55;;
47161;SDS011;32921;53.256;8.198;2022-08-21T09:53:48;9.20;;;2.20;;
47161;SDS011;32921;53.256;8.198;2022-08-21T09:56:29;11.75;;;2.22;;
47161;SDS011;32921;53.256;8.198;2022-08-21T09:59:20;9.07;;;2.35;;
47161;SDS011;32921;53.256;8.198;2022-08-21T10:01:57;8.77;;;2.10;;
47161;SDS011;32921;53.256;8.198;2022-08-21T10:04:30;11.55;;;2.55;;
47161;SDS011;32921;53.256;8.198;2022-08-21T10:09:37;6.85;;;1.70;;
47161;SDS011;32921;53.256;8.198;2022-08-21T10:14:47;8.55;;;1.95;;
47161;SDS011;32921;53.256;8.198;2022-08-21T10:20:09;8.43;;;1.85;;
47161;SDS011;32921;53.256;8.198;2022-08-21T10:22:45;8.85;;;2.00;;
47161;SDS011;32921;53.256;8.198;2022-08-21T10:28:25;9.38;;;2.00;;
47161;SDS011;32921;53.256;8.198;2022-08-21T10:31:13;8.57;;;2.00;;
47161;SDS011;32921;53.256;8.198;2022-08-21T10:33:53;5.53;;;1.55;;
47161;SDS011;32921;53.256;8.198;2022-08-21T10:36:39;6.18;;;1.60;;
47161;SDS011;32921;53.256;8.198;2022-08-21T10:39:32;8.27;;;1.60;;
47161;SDS011;32921;53.256;8.198;2022-08-21T10:47:27;5.30;;;1.30;;
47161;SDS011;32921;53.256;8.198;2022-08-21T10:52:42;6.18;;;1.38;;
47161;SDS011;32921;53.256;8.198;2022-08-21T10:55:31;6.57;;;1.90;;
47161;SDS011;32921;53.256;8.198;2022-08-21T10:58:10;8.50;;;1.90;;
47161;SDS011;32921;53.256;8.198;2022-08-21T11:00:43;6.05;;;1.50;;
47161;SDS011;32921;53.256;8.198;2022-08-21T11:05:59;10.57;;;1.80;;
47161;SDS011;32921;53.256;8.198;2022-08-21T11:08:56;6.20;;;1.92;;
47161;SDS011;32921;53.256;8.198;2022-08-21T11:11:36;6.30;;;1.52;;
47161;SDS011;32921;53.256;8.198;2022-08-21T11:14:21;5.75;;;1.60;;
47161;SDS011;32921;53.256;8.198;2022-08-21T11:17:08;7.30;;;1.70;;
47161;SDS011;32921;53.256;8.198;2022-08-21T11:25:06;4.60;;;1.17;;
47161;SDS011;32921;53.256;8.198;2022-08-21T11:27:52;6.43;;;1.40;;
47161;SDS011;32921;53.256;8.198;2022-08-21T11:30:23;7.25;;;1.40;;
47161;SDS011;32921;53.256;8.198;2022-08-21T11:38:29;6.90;;;1.60;;
47161;SDS011;32921;53.256;8.198;2022-08-21T11:41:08;7.13;;;1.60;;
47161;SDS011;32921;53.256;8.198;2022-08-21T11:43:44;8.50;;;1.42;;
47161;SDS011;32921;53.256;8.198;2022-08-21T11:46:25;5.28;;;1.50;;
47161;SDS011;32921;53.256;8.198;2022-08-21T11:52:20;7.85;;;1.50;;
47161;SDS011;32921;53.256;8.198;2022-08-21T11:54:57;5.38;;;1.45;;
47161;SDS011;32921;53.256;8.198;2022-08-21T11:57:46;5.95;;;1.50;;
47161;SDS011;32921;53.256;8.198;2022-08-21T12:00:20;5.47;;;1.58;;
47161;SDS011;32921;53.256;8.198;2022-08-21T12:02:52;5.75;;;1.40;;
47161;SDS011;32921;53.256;8.198;2022-08-21T12:08:00;4.40;;;1.40;;
47161;SDS011;32921;53.256;8.198;2022-08-21T12:18:03;4.78;;;1.30;;
47161;SDS011;32921;53.256;8.198;2022-08-21T12:26:23;7.32;;;1.70;;
47161;SDS011;32921;53.256;8.198;2022-08-21T12:29:02;3.67;;;1.20;;
47161;SDS011;32921;53.256;8.198;2022-08-21T12:31:49;3.90;;;1.10;;
47161;SDS011;32921;53.256;8.198;2022-08-21T12:34:17;6.18;;;1.48;;
47161;SDS011;32921;53.256;8.198;2022-08-21T12:36:46;5.70;;;1.55;;
47161;SDS011;32921;53.256;8.198;2022-08-21T12:39:21;5.68;;;1.38;;
47161;SDS011;32921;53.256;8.198;2022-08-21T12:41:50;7.40;;;1.50;;
47161;SDS011;32921;53.256;8.198;2022-08-21T12:44:53;4.35;;;1.05;;
47161;SDS011;32921;53.256;8.198;2022-08-21T12:50:12;5.82;;;1.40;;
47161;SDS011;32921;53.256;8.198;2022-08-21T12:52:45;7.07;;;1.60;;
47161;SDS011;32921;53.256;8.198;2022-08-21T12:55:29;5.50;;;1.17;;
47161;SDS011;32921;53.256;8.198;2022-08-21T12:57:56;4.60;;;1.30;;
47161;SDS011;32921;53.256;8.198;2022-08-21T13:00:23;4.20;;;1.10;;
47161;SDS011;32921;53.256;8.198;2022-08-21T13:02:50;5.28;;;1.30;;
47161;SDS011;32921;53.256;8.198;2022-08-21T13:05:34;6.63;;;1.40;;
47161;SDS011;32921;53.256;8.198;2022-08-21T13:08:04;4.57;;;1.00;;
47161;SDS011;32921;53.256;8.198;2022-08-21T13:10:33;5.63;;;1.58;;
47161;SDS011;32921;53.256;8.198;2022-08-21T13:13:01;4.72;;;1.35;;
47161;SDS011;32921;53.256;8.198;2022-08-21T13:15:41;3.38;;;1.00;;
47161;SDS011;32921;53.256;8.198;2022-08-21T13:18:07;4.50;;;1.13;;
47161;SDS011;32921;53.256;8.198;2022-08-21T13:20:34;2.72;;;0.82;;
47161;SDS011;32921;53.256;8.198;2022-08-21T13:23:06;3.78;;;1.00;;
47161;SDS011;32921;53.256;8.198;2022-08-21T13:25:52;4.63;;;1.30;;
47161;SDS011;32921;53.256;8.198;2022-08-21T13:28:19;3.78;;;1.10;;
47161;SDS011;32921;53.256;8.198;2022-08-21T13:30:46;6.72;;;1.10;;
47161;SDS011;32921;53.256;8.198;2022-08-21T13:33:15;5.00;;;1.13;;
47161;SDS011;32921;53.256;8.198;2022-08-21T13:35:57;3.50;;;1.00;;
47161;SDS011;32921;53.256;8.198;2022-08-21T13:38:50;2.80;;;0.80;;
47161;SDS011;32921;53.256;8.198;2022-08-21T13:41:26;3.45;;;1.02;;
47161;SDS011;32921;53.256;8.198;2022-08-21T13:43:59;3.15;;;1.00;;
47161;SDS011;32921;53.256;8.198;2022-08-21T13:46:30;3.05;;;0.93;;
47161;SDS011;32921;53.256;8.198;2022-08-21T13:48:59;4.63;;;1.10;;
47161;SDS011;32921;53.256;8.198;2022-08-21T13:51:27;5.80;;;1.55;;
47161;SDS011;32921;53.256;8.198;2022-08-21T13:53:55;3.28;;;0.90;;
47161;SDS011;32921;53.256;8.198;2022-08-21T13:56:21;5.13;;;1.27;;
47161;SDS011;32921;53.256;8.198;2022-08-21T13:58:51;4.38;;;1.00;;
47161;SDS011;32921;53.256;8.198;2022-08-21T14:01:19;4.13;;;0.90;;
47161;SDS011;32921;53.256;8.198;2022-08-21T14:03:48;3.35;;;1.00;;
47161;SDS011;32921;53.256;8.198;2022-08-21T14:06:20;5.15;;;1.17;;
47161;SDS011;32921;53.256;8.198;2022-08-21T14:08:51;4.13;;;1.20;;
47161;SDS011;32921;53.256;8.198;2022-08-21T14:11:18;3.22;;;1.08;;
47161;SDS011;32921;53.256;8.198;2022-08-21T14:13:45;4.25;;;0.93;;
47161;SDS011;32921;53.256;8.198;2022-08-21T14:16:22;5.32;;;0.88;;
47161;SDS011;32921;53.256;8.198;2022-08-21T14:19:05;4.70;;;1.40;;
47161;SDS011;32921;53.256;8.198;2022-08-21T14:21:42;3.78;;;1.30;;
47161;SDS011;32921;53.256;8.198;2022-08-21T14:24:24;4.32;;;1.00;;
47161;SDS011;32921;53.256;8.198;2022-08-21T14:26:54;3.38;;;0.98;;
47161;SDS011;32921;53.256;8.198;2022-08-21T14:29:24;4.15;;;1.05;;
47161;SDS011;32921;53.256;8.198;2022-08-21T14:31:53;3.97;;;1.00;;
47161;SDS011;32921;53.256;8.198;2022-08-21T14:34:22;5.30;;;1.10;;
47161;SDS011;32921;53.256;8.198;2022-08-21T14:36:49;3.28;;;1.10;;
47161;SDS011;32921;53.256;8.198;2022-08-21T14:39:15;4.47;;;1.30;;
47161;SDS011;32921;53.256;8.198;2022-08-21T14:41:41;3.20;;;0.93;;
47161;SDS011;32921;53.256;8.198;2022-08-21T14:44:07;3.10;;;1.08;;
47161;SDS011;32921;53.256;8.198;2022-08-21T14:46:34;3.05;;;0.95;;
47161;SDS011;32921;53.256;8.198;2022-08-21T14:49:01;4.25;;;1.02;;
47161;SDS011;32921;53.256;8.198;2022-08-21T14:51:28;4.22;;;1.30;;
47161;SDS011;32921;53.256;8.198;2022-08-21T14:53:54;4.88;;;1.05;;
47161;SDS011;32921;53.256;8.198;2022-08-21T14:56:19;3.95;;;1.00;;
47161;SDS011;32921;53.256;8.198;2022-08-21T14:58:46;6.53;;;1.23;;
47161;SDS011;32921;53.256;8.198;2022-08-21T15:01:14;5.20;;;1.02;;
47161;SDS011;32921;53.256;8.198;2022-08-21T15:03:42;3.42;;;1.20;;
47161;SDS011;32921;53.256;8.198;2022-08-21T15:06:08;6.47;;;1.10;;
47161;SDS011;32921;53.256;8.198;2022-08-21T15:08:34;4.30;;;1.17;;
47161;SDS011;32921;53.256;8.198;2022-08-21T15:11:01;7.00;;;1.25;;
47161;SDS011;32921;53.256;8.198;2022-08-21T15:13:27;5.53;;;1.10;;
47161;SDS011;32921;53.256;8.198;2022-08-21T15:15:53;2.28;;;0.90;;
47161;SDS011;32921;53.256;8.198;2022-08-21T15:18:21;5.65;;;1.20;;
47161;SDS011;32921;53.256;8.198;2022-08-21T15:20:47;7.00;;;1.00;;
47161;SDS011;32921;53.256;8.198;2022-08-21T15:23:13;5.60;;;1.00;;
47161;SDS011;32921;53.256;8.198;2022-08-21T15:25:40;5.03;;;1.00;;
47161;SDS011;32921;53.256;8.198;2022-08-21T15:28:08;4.18;;;0.93;;
47161;SDS011;32921;53.256;8.198;2022-08-21T15:30:35;4.30;;;1.30;;
47161;SDS011;32921;53.256;8.198;2022-08-21T15:33:02;5.70;;;1.30;;
47161;SDS011;32921;53.256;8.198;2022-08-21T15:35:28;9.00;;;5.30;;
47161;SDS011;32921;53.256;8.198;2022-08-21T15:37:53;4.05;;;1.20;;
47161;SDS011;32921;53.256;8.198;2022-08-21T15:40:19;7.13;;;1.42;;
47161;SDS011;32921;53.256;8.198;2022-08-21T15:42:44;10.40;;;6.65;;
47161;SDS011;32921;53.256;8.198;2022-08-21T15:45:12;7.30;;;1.83;;
47161;SDS011;32921;53.256;8.198;2022-08-21T15:47:38;19.88;;;17.73;;
47161;SDS011;32921;53.256;8.198;2022-08-21T15:50:09;6.30;;;2.58;;
47161;SDS011;32921;53.256;8.198;2022-08-21T15:52:35;6.97;;;3.08;;
47161;SDS011;32921;53.256;8.198;2022-08-21T15:55:02;8.73;;;2.88;;
47161;SDS011;32921;53.256;8.198;2022-08-21T15:57:29;14.30;;;8.50;;
47161;SDS011;32921;53.256;8.198;2022-08-21T16:00:00;9.00;;;2.20;;
47161;SDS011;32921;53.256;8.198;2022-08-21T16:02:38;8.52;;;2.10;;
47161;SDS011;32921;53.256;8.198;2022-08-21T16:05:05;8.63;;;2.20;;
47161;SDS011;32921;53.256;8.198;2022-08-21T16:07:31;7.85;;;3.25;;
47161;SDS011;32921;53.256;8.198;2022-08-21T16:09:56;6.75;;;1.80;;
47161;SDS011;32921;53.256;8.198;2022-08-21T16:12:23;9.90;;;2.10;;
47161;SDS011;32921;53.256;8.198;2022-08-21T16:14:57;9.20;;;1.90;;